テグシガルパ の空港の天気 - METARとTAF

トンコンティン国際空港 ( MHTG / TGU ) - ホンジュラス テグシガルパ
飛行場実況気象(Metar)
観測時間09/22 11:00 CST (09/22 17:00 UTC)
風向・風速北 6m/s
視程10km以上
天気現象
全天の4割程度の雲 雲底高度 980m
気温27℃
湿度62%
気圧1018hPa
METARMHTG 221700Z 36012KT 9999 SCT032 27/19 Q1018 A3006 NOSIG
過去の天気等 Google飛行場航空写真 Wunderground天気予報

過去48時間のMETAR

飛行場予報(TAF)
発表時間: 9/22 04:30 CST (9/22 10:30 UTC)
予報対象時間: 22日6時 CST ~ 23日6時 CST
風向・風速北東 4m/s
視程10km以上
少しの雲 雲底高度 980m
22日12時 CST ~ 22日14時 CST に徐々に
全天の4割程度の塔状積雲 雲底高度 980m
全天の4割程度の雲 雲底高度 2440m
22日18時 CST ~ 22日20時 CST に徐々に
視程8000m
天気現象周辺でしゅう雨
全天の4割程度の雲 雲底高度 850m
全天の4割程度の雲 雲底高度 2130m
23日0時 CST ~ 23日2時 CST に徐々に
風向・風速静穏
視程10km以上
天気現象運行に影響にある天気現象が終了
全天の4割程度の雲 雲底高度 760m
全天の4割程度の雲 雲底高度 2130m
TAF COR MHTG 221030Z 2212/2312 05008KT 9999 FEW032 TX29/2220Z TN17/2312Z
BECMG 2218/2220 SCT032TCU SCT080
BECMG 2300/2302 8000 VCSH SCT028 SCT070
BECMG 2306/2308 00000KT 9999 NSW SCT025 SCT070